createdAt,value
2022-10-11T00:03:04.613Z,5.95
2022-10-11T00:08:08.786Z,5.94
2022-10-11T00:13:12.923Z,5.85
2022-10-11T00:18:17.113Z,5.85
2022-10-11T00:23:21.306Z,5.81
2022-10-11T00:28:25.508Z,5.80
2022-10-11T00:33:29.584Z,5.80
2022-10-11T00:38:33.776Z,5.82
2022-10-11T00:43:37.914Z,5.86
2022-10-11T00:48:42.096Z,5.77
2022-10-11T00:53:46.277Z,5.69
2022-10-11T00:58:50.414Z,5.69
2022-10-11T01:03:54.564Z,5.59
2022-10-11T01:08:58.784Z,5.54
2022-10-11T01:14:02.896Z,5.53
2022-10-11T01:19:07.096Z,5.47
2022-10-11T01:24:11.242Z,5.40
2022-10-11T01:29:15.381Z,5.35
2022-10-11T01:34:19.557Z,5.23
2022-10-11T01:39:23.731Z,5.12
2022-10-11T01:44:27.880Z,5.03
2022-10-11T01:49:32.082Z,4.97
2022-10-11T01:55:04.071Z,5.02
2022-10-11T01:59:40.379Z,5.05
2022-10-11T02:04:44.572Z,5.00
2022-10-11T02:09:48.714Z,4.88
2022-10-11T02:14:52.891Z,4.81
2022-10-11T02:19:55.145Z,4.83
2022-10-11T02:24:59.326Z,4.83
2022-10-11T02:30:03.502Z,4.83
2022-10-11T02:40:11.803Z,4.89
2022-10-11T02:45:15.946Z,4.72
2022-10-11T02:50:20.137Z,4.63
2022-10-11T02:55:24.328Z,4.59
2022-10-11T03:00:28.442Z,4.45
2022-10-11T03:05:32.604Z,4.44
2022-10-11T03:10:36.789Z,4.46
2022-10-11T03:15:40.932Z,4.37
2022-10-11T03:20:45.109Z,4.34
2022-10-11T03:25:49.265Z,4.33
2022-10-11T03:30:53.413Z,4.30
2022-10-11T03:35:57.731Z,4.32
2022-10-11T03:41:01.764Z,4.28
2022-10-11T03:46:06.366Z,4.26
2022-10-11T03:51:10.105Z,4.23
2022-10-11T03:56:14.582Z,4.19
2022-10-11T04:01:18.461Z,4.20
2022-10-11T04:06:22.569Z,4.18
2022-10-11T04:11:26.764Z,4.17
2022-10-11T04:16:30.911Z,4.16
2022-10-11T04:21:35.131Z,4.07
2022-10-11T04:26:39.303Z,4.04
2022-10-11T04:31:43.401Z,3.98
2022-10-11T04:36:49.853Z,3.97
2022-10-11T04:41:51.723Z,4.00
2022-10-11T04:46:55.914Z,4.10
2022-10-11T04:52:00.080Z,4.01
2022-10-11T04:57:04.228Z,3.97
2022-10-11T05:02:08.591Z,3.88
2022-10-11T05:07:12.570Z,3.86
2022-10-11T05:12:16.731Z,3.83
2022-10-11T05:17:20.890Z,3.79
2022-10-11T05:22:25.027Z,3.78
2022-10-11T05:27:29.186Z,3.88
2022-10-11T05:32:33.419Z,3.85
2022-10-11T05:37:37.565Z,3.78
2022-10-11T05:42:41.702Z,3.76
2022-10-11T05:47:45.871Z,3.70
2022-10-11T05:52:50.037Z,3.74
2022-10-11T05:57:54.172Z,3.74
2022-10-11T06:02:58.374Z,3.68
2022-10-11T06:08:02.520Z,3.66
2022-10-11T06:13:06.693Z,3.68
2022-10-11T06:18:10.838Z,3.68
2022-10-11T06:23:15.019Z,3.69
2022-10-11T06:28:19.321Z,3.75
2022-10-11T06:33:23.322Z,3.87
2022-10-11T06:38:27.488Z,4.04
2022-10-11T06:43:31.698Z,4.09
2022-10-11T06:48:35.820Z,4.18
2022-10-11T06:53:40.013Z,4.36
2022-10-11T06:58:44.157Z,4.44
2022-10-11T07:03:48.491Z,4.49
2022-10-11T07:08:52.468Z,4.63
2022-10-11T07:13:56.659Z,4.75
2022-10-11T07:19:01.233Z,4.97
2022-10-11T07:24:04.979Z,5.08
2022-10-11T07:29:09.119Z,5.26
2022-10-11T07:34:13.314Z,5.50
2022-10-11T07:39:17.484Z,5.60
2022-10-11T07:44:21.650Z,5.79
2022-10-11T07:49:23.906Z,6.03
2022-10-11T07:54:28.081Z,6.23
2022-10-11T07:59:32.226Z,6.38
2022-10-11T08:04:36.457Z,6.50
2022-10-11T08:09:40.563Z,6.76
2022-10-11T08:14:44.750Z,6.95
2022-10-11T08:19:48.901Z,7.19
2022-10-11T08:24:53.065Z,7.32
2022-10-11T08:29:57.248Z,7.56
2022-10-11T08:35:01.433Z,7.85
2022-10-11T08:40:05.588Z,8.07
2022-10-11T08:45:11.462Z,8.29
2022-10-11T08:50:13.897Z,8.44
2022-10-11T08:55:18.046Z,8.64
2022-10-11T09:00:22.200Z,8.84
2022-10-11T09:05:26.362Z,9.03
2022-10-11T09:10:30.565Z,9.32
2022-10-11T09:15:34.711Z,9.61
2022-10-11T09:20:38.834Z,9.81
2022-10-11T09:25:43.051Z,10.02
2022-10-11T09:30:47.179Z,10.23
2022-10-11T09:35:51.358Z,10.40
2022-10-11T09:40:55.504Z,10.76
2022-10-11T09:45:59.656Z,11.09
2022-10-11T09:51:03.837Z,11.24
2022-10-11T09:56:08.673Z,11.54
2022-10-11T10:01:12.163Z,11.78
2022-10-11T10:06:16.337Z,11.99
2022-10-11T10:11:20.481Z,12.16
2022-10-11T10:16:24.633Z,12.49
2022-10-11T10:21:28.821Z,12.60
2022-10-11T10:32:01.598Z,13.22
2022-10-11T10:41:45.413Z,13.56
2022-10-11T10:46:49.641Z,13.91
2022-10-11T10:51:53.787Z,14.11
2022-10-11T10:56:57.939Z,14.21
2022-10-11T11:02:15.894Z,14.46
2022-10-11T11:07:06.255Z,14.53
2022-10-11T11:12:10.402Z,14.20
2022-10-11T11:17:14.547Z,13.90
2022-10-11T11:22:18.769Z,14.00
2022-10-11T11:27:22.890Z,13.98
2022-10-11T11:32:27.033Z,13.81
2022-10-11T11:37:31.238Z,13.50
2022-10-11T11:42:35.352Z,13.98
2022-10-11T11:47:39.490Z,14.12
2022-10-11T11:52:43.682Z,14.12
2022-10-11T11:57:47.834Z,14.26
2022-10-11T12:02:51.985Z,14.59
2022-10-11T12:07:56.170Z,14.83
2022-10-11T12:13:00.301Z,14.71
2022-10-11T12:18:04.493Z,15.12
2022-10-11T12:23:08.639Z,15.32
2022-10-11T12:28:12.878Z,15.31
2022-10-11T12:33:16.951Z,15.04
2022-10-11T12:38:21.164Z,14.91
2022-10-11T12:43:25.304Z,14.69
2022-10-11T12:48:34.878Z,14.42
2022-10-11T12:53:33.613Z,14.34
2022-10-11T12:58:37.793Z,14.51
2022-10-11T13:03:41.985Z,14.84
2022-10-11T13:08:46.078Z,15.06
2022-10-11T13:13:50.249Z,15.45
2022-10-11T13:18:52.482Z,15.36
2022-10-11T13:23:56.662Z,15.50
2022-10-11T13:29:00.847Z,15.31
2022-10-11T13:34:04.980Z,15.28
2022-10-11T13:39:09.130Z,15.39
2022-10-11T13:44:13.282Z,15.61
2022-10-11T13:49:15.614Z,15.61
2022-10-11T13:54:19.719Z,15.41
2022-10-11T13:59:23.934Z,15.32
2022-10-11T14:04:29.978Z,15.09
2022-10-11T14:09:32.190Z,15.25
2022-10-11T14:14:36.370Z,15.58
2022-10-11T14:19:40.549Z,15.67
2022-10-11T14:24:44.709Z,15.92
2022-10-11T14:30:12.640Z,16.00
2022-10-11T14:34:53.046Z,15.95
2022-10-11T14:39:57.193Z,16.11
2022-10-11T14:45:01.348Z,16.12
2022-10-11T14:50:05.491Z,15.99
2022-10-11T14:55:09.617Z,15.87
2022-10-11T15:00:13.830Z,15.55
2022-10-11T15:05:17.989Z,15.24
2022-10-11T15:10:22.122Z,14.96
2022-10-11T15:15:26.299Z,14.86
2022-10-11T15:20:30.456Z,14.61
2022-10-11T15:25:34.599Z,14.49
2022-10-11T15:30:41.661Z,14.38
2022-10-11T15:35:42.915Z,14.25
2022-10-11T15:40:47.066Z,14.05
2022-10-11T15:45:51.274Z,13.93
2022-10-11T15:50:55.420Z,14.19
2022-10-11T15:55:59.596Z,13.78
2022-10-11T16:01:04.155Z,13.97
2022-10-11T16:06:08.376Z,14.23
2022-10-11T16:11:12.072Z,13.42
2022-10-11T16:16:16.241Z,13.03
2022-10-11T16:21:20.383Z,12.78
2022-10-11T16:26:24.522Z,12.42
2022-10-11T16:31:28.739Z,12.10
2022-10-11T16:36:32.861Z,11.73
2022-10-11T16:41:37.032Z,11.32
2022-10-11T16:46:41.165Z,10.91
2022-10-11T16:51:45.359Z,10.60
2022-10-11T16:56:49.494Z,10.36
2022-10-11T17:01:53.620Z,10.20
2022-10-11T17:06:57.801Z,9.95
2022-10-11T17:12:01.998Z,9.69
2022-10-11T17:17:06.124Z,9.50
2022-10-11T17:22:10.294Z,9.42
2022-10-11T17:27:14.472Z,9.25
2022-10-11T17:32:18.644Z,9.10
2022-10-11T17:37:22.824Z,8.97
2022-10-11T17:42:26.964Z,8.81
2022-10-11T17:47:31.109Z,8.66
2022-10-11T17:52:35.260Z,8.51
2022-10-11T17:57:39.578Z,8.37
2022-10-11T18:02:43.603Z,8.26
2022-10-11T18:07:47.741Z,8.08
2022-10-11T18:12:51.922Z,7.89
2022-10-11T18:17:56.104Z,7.80
2022-10-11T18:23:00.237Z,7.75
2022-10-11T18:28:04.402Z,7.68
2022-10-11T18:33:08.581Z,7.63
2022-10-11T18:38:12.780Z,7.59
2022-10-11T18:43:16.929Z,7.50
2022-10-11T18:48:21.058Z,7.44
2022-10-11T18:53:25.249Z,7.46
2022-10-11T18:58:29.376Z,7.41
2022-10-11T19:03:35.318Z,7.39
2022-10-11T19:08:37.734Z,7.21
2022-10-11T19:13:41.877Z,7.10
2022-10-11T19:18:44.536Z,6.99
2022-10-11T19:23:48.430Z,6.88
2022-10-11T19:28:52.533Z,6.77
2022-10-11T19:33:56.666Z,6.67
2022-10-11T19:39:00.833Z,6.58
2022-10-11T19:44:04.922Z,6.51
2022-10-11T19:49:09.088Z,6.46
2022-10-11T19:54:14.425Z,6.35
2022-10-11T19:59:17.442Z,6.20
2022-10-11T20:04:46.897Z,6.12
2022-10-11T20:09:30.263Z,6.07
2022-10-11T20:14:29.921Z,6.01
2022-10-11T20:19:34.098Z,5.92
2022-10-11T20:24:38.246Z,5.82
2022-10-11T20:29:42.442Z,5.75
2022-10-11T20:34:46.806Z,5.74
2022-10-11T20:39:50.774Z,5.67
2022-10-11T20:44:54.904Z,5.61
2022-10-11T20:49:59.077Z,5.51
2022-10-11T20:55:03.467Z,5.46
2022-10-11T21:00:07.400Z,5.44
2022-10-11T21:05:11.569Z,5.47
2022-10-11T21:10:15.720Z,5.42
2022-10-11T21:15:19.896Z,5.36
2022-10-11T21:20:24.051Z,5.25
2022-10-11T21:25:28.202Z,5.26
2022-10-11T21:30:32.394Z,5.20
2022-10-11T21:35:36.519Z,5.09
2022-10-11T21:40:40.713Z,5.03
2022-10-11T21:45:44.846Z,4.99
2022-10-11T21:50:49.059Z,4.98
2022-10-11T21:55:55.228Z,4.95
2022-10-11T22:00:57.374Z,5.00
2022-10-11T22:06:01.550Z,4.93
2022-10-11T22:11:05.688Z,4.85
2022-10-11T22:16:09.817Z,4.76
2022-10-11T22:21:13.973Z,4.79
2022-10-11T22:26:18.167Z,4.71
2022-10-11T22:31:22.331Z,4.61
2022-10-11T22:36:26.499Z,4.62
2022-10-11T22:41:30.651Z,4.60
2022-10-11T22:46:34.851Z,4.57
2022-10-11T22:51:38.959Z,4.51
2022-10-11T22:56:43.148Z,4.44
2022-10-11T23:01:47.300Z,4.49
2022-10-11T23:06:51.494Z,4.52
2022-10-11T23:11:55.651Z,4.51
2022-10-11T23:16:59.806Z,4.44
2022-10-11T23:22:03.978Z,4.37
2022-10-11T23:27:08.118Z,4.33
2022-10-11T23:32:12.309Z,4.19
2022-10-11T23:37:16.470Z,4.19
2022-10-11T23:42:20.690Z,4.20
2022-10-11T23:47:24.801Z,4.16
2022-10-11T23:52:28.958Z,4.12
2022-10-11T23:57:33.092Z,4.07
